createdAt,value
2023-01-01T00:01:28.811Z,17.50
2023-01-01T00:03:57.532Z,14.85
2023-01-01T00:06:25.033Z,17.85
2023-01-01T00:09:14.487Z,16.20
2023-01-01T00:11:41.243Z,18.13
2023-01-01T00:14:12.264Z,17.70
2023-01-01T00:16:40.139Z,19.42
2023-01-01T00:19:07.027Z,17.92
2023-01-01T00:21:33.701Z,15.18
2023-01-01T00:24:00.395Z,12.90
2023-01-01T00:26:31.035Z,15.48
2023-01-01T00:29:01.400Z,20.45
2023-01-01T00:31:28.152Z,20.02
2023-01-01T00:33:55.881Z,14.00
2023-01-01T00:36:24.577Z,18.35
2023-01-01T00:38:51.589Z,24.88
2023-01-01T00:41:18.888Z,17.50
2023-01-01T00:43:46.052Z,21.52
2023-01-01T00:46:13.343Z,15.80
2023-01-01T00:48:40.393Z,15.48
2023-01-01T00:51:07.937Z,13.88
2023-01-01T00:53:35.081Z,13.50
2023-01-01T00:56:01.748Z,11.98
2023-01-01T00:58:28.545Z,16.98
2023-01-01T01:00:55.547Z,12.27
2023-01-01T01:03:28.898Z,11.13
2023-01-01T01:06:01.043Z,14.65
2023-01-01T01:08:31.011Z,16.13
2023-01-01T01:11:22.272Z,19.02
2023-01-01T01:13:51.319Z,15.60
2023-01-01T01:16:20.664Z,15.82
2023-01-01T01:18:49.841Z,15.65
2023-01-01T01:21:19.344Z,14.90
2023-01-01T01:23:46.016Z,21.50
2023-01-01T01:26:17.096Z,19.55
2023-01-01T01:28:49.447Z,17.65
2023-01-01T01:31:18.144Z,15.85
2023-01-01T01:33:45.771Z,11.40
2023-01-01T01:36:13.421Z,11.45
2023-01-01T01:38:40.474Z,11.52
2023-01-01T01:41:07.888Z,11.02
2023-01-01T01:43:34.507Z,11.90
2023-01-01T01:46:16.340Z,10.25
2023-01-01T01:48:47.055Z,7.40
2023-01-01T01:51:16.062Z,10.43
2023-01-01T01:53:48.518Z,10.50
2023-01-01T01:56:21.533Z,10.88
2023-01-01T01:58:49.006Z,8.95
2023-01-01T02:01:16.136Z,10.02
2023-01-01T02:03:57.978Z,12.57
2023-01-01T02:06:29.531Z,9.02
2023-01-01T02:08:59.165Z,8.30
2023-01-01T02:11:25.968Z,9.73
2023-01-01T02:13:54.758Z,9.05
2023-01-01T02:16:58.429Z,10.05
2023-01-01T02:20:02.218Z,9.43
2023-01-01T02:22:51.353Z,9.45
2023-01-01T02:25:41.047Z,9.15
2023-01-01T02:28:26.155Z,9.80
2023-01-01T02:30:55.539Z,9.95
2023-01-01T02:33:25.927Z,9.30
2023-01-01T02:35:58.262Z,9.57
2023-01-01T02:38:35.172Z,8.43
2023-01-01T02:41:26.219Z,9.65
2023-01-01T02:43:53.546Z,12.70
2023-01-01T02:48:51.436Z,7.93
2023-01-01T02:51:27.765Z,7.72
2023-01-01T02:54:23.437Z,10.18
2023-01-01T02:57:20.761Z,8.90
2023-01-01T03:00:24.303Z,6.55
2023-01-01T03:03:09.700Z,7.45
2023-01-01T03:06:23.868Z,7.53
2023-01-01T03:11:23.339Z,4.43
2023-01-01T03:14:08.076Z,5.07
2023-01-01T03:16:40.341Z,6.50
2023-01-01T03:19:25.987Z,6.17
2023-01-01T03:22:06.249Z,10.80
2023-01-01T03:24:42.093Z,12.15
2023-01-01T03:27:18.125Z,9.15
2023-01-01T03:29:48.120Z,6.78
2023-01-01T03:32:21.384Z,9.35
2023-01-01T03:34:54.282Z,5.72
2023-01-01T03:37:27.547Z,5.82
2023-01-01T03:39:59.095Z,9.90
2023-01-01T03:42:55.676Z,5.22
2023-01-01T03:45:30.935Z,5.40
2023-01-01T03:47:58.652Z,6.32
2023-01-01T03:50:36.079Z,7.18
2023-01-01T03:53:14.889Z,5.07
2023-01-01T03:55:53.573Z,5.05
2023-01-01T03:58:38.560Z,6.10
2023-01-01T04:01:12.208Z,3.90
2023-01-01T04:03:41.821Z,6.95
2023-01-01T04:06:11.572Z,3.42
2023-01-01T04:08:38.913Z,5.30
2023-01-01T04:11:34.196Z,5.90
2023-01-01T04:14:00.935Z,6.25
2023-01-01T04:16:27.716Z,6.80
2023-01-01T04:18:54.440Z,7.60
2023-01-01T04:21:21.131Z,5.18
2023-01-01T04:23:47.810Z,5.00
2023-01-01T04:26:14.975Z,7.30
2023-01-01T04:28:42.657Z,6.50
2023-01-01T04:31:10.150Z,7.07
2023-01-01T04:33:36.827Z,6.75
2023-01-01T04:36:08.497Z,8.45
2023-01-01T04:38:36.709Z,7.80
2023-01-01T04:41:04.560Z,6.03
2023-01-01T04:43:32.048Z,4.78
2023-01-01T04:46:04.376Z,5.72
2023-01-01T04:48:31.990Z,7.53
2023-01-01T04:51:01.120Z,6.18
2023-01-01T04:53:32.793Z,6.20
2023-01-01T04:56:13.745Z,5.00
2023-01-01T04:58:41.500Z,3.97
2023-01-01T05:01:09.004Z,3.80
2023-01-01T05:03:37.384Z,6.05
2023-01-01T05:06:09.784Z,4.63
2023-01-01T05:08:39.435Z,5.28
2023-01-01T05:11:13.124Z,2.63
2023-01-01T05:13:42.118Z,6.97
2023-01-01T05:16:11.379Z,7.40
2023-01-01T05:18:39.421Z,6.50
2023-01-01T05:21:09.603Z,8.93
2023-01-01T05:23:36.650Z,4.47
2023-01-01T05:26:15.588Z,5.45
2023-01-01T05:28:43.004Z,5.95
2023-01-01T05:31:12.779Z,4.13
2023-01-01T05:33:40.136Z,9.43
2023-01-01T05:36:09.267Z,5.00
2023-01-01T05:38:36.699Z,5.28
2023-01-01T05:41:12.884Z,7.03
2023-01-01T05:43:39.637Z,10.75
2023-01-01T05:46:08.429Z,7.25
2023-01-01T05:48:38.603Z,10.50
2023-01-01T05:51:14.000Z,6.03
2023-01-01T05:53:40.707Z,5.78
2023-01-01T05:56:07.979Z,6.28
2023-01-01T05:58:36.014Z,3.30
2023-01-01T06:01:10.839Z,4.53
2023-01-01T06:03:37.652Z,6.45
2023-01-01T06:06:10.418Z,5.43
2023-01-01T06:08:37.215Z,3.28
2023-01-01T06:11:06.483Z,4.53
2023-01-01T06:13:33.408Z,4.75
2023-01-01T06:16:01.591Z,6.18
2023-01-01T06:18:33.908Z,3.88
2023-01-01T06:21:14.966Z,7.33
2023-01-01T06:23:42.119Z,3.42
2023-01-01T06:26:20.128Z,4.68
2023-01-01T06:28:48.009Z,6.63
2023-01-01T06:31:17.496Z,6.32
2023-01-01T06:33:45.382Z,4.40
2023-01-01T06:36:13.967Z,6.25
2023-01-01T06:38:43.404Z,4.50
2023-01-01T06:41:15.849Z,3.70
2023-01-01T06:43:42.790Z,3.15
2023-01-01T06:46:30.553Z,7.40
2023-01-01T06:48:59.749Z,4.57
2023-01-01T06:51:38.107Z,2.45
2023-01-01T06:54:05.647Z,4.25
2023-01-01T06:56:33.013Z,1.63
2023-01-01T06:59:00.251Z,3.15
2023-01-01T07:01:29.606Z,3.95
2023-01-01T07:04:05.172Z,4.53
2023-01-01T07:06:33.485Z,4.80
2023-01-01T07:09:00.537Z,6.75
2023-01-01T07:11:28.036Z,4.47
2023-01-01T07:13:55.268Z,2.67
2023-01-01T07:16:22.944Z,3.47
2023-01-01T07:18:50.751Z,3.22
2023-01-01T07:22:05.133Z,2.67
2023-01-01T07:24:34.841Z,3.90
2023-01-01T07:27:04.919Z,6.43
2023-01-01T07:29:31.676Z,4.40
2023-01-01T07:31:58.453Z,3.33
2023-01-01T07:34:25.166Z,5.30
2023-01-01T07:36:51.827Z,3.35
2023-01-01T07:39:18.527Z,3.33
2023-01-01T07:41:45.928Z,4.75
2023-01-01T07:44:12.671Z,5.00
2023-01-01T07:46:39.518Z,4.57
2023-01-01T07:49:06.333Z,3.70
2023-01-01T07:51:33.166Z,4.88
2023-01-01T07:54:06.097Z,5.43
2023-01-01T07:56:35.362Z,4.53
2023-01-01T07:59:02.222Z,6.47
2023-01-01T08:01:29.003Z,3.20
2023-01-01T08:03:55.822Z,4.35
2023-01-01T08:06:22.711Z,4.18
2023-01-01T08:08:49.511Z,5.40
2023-01-01T08:11:16.259Z,3.65
2023-01-01T08:13:43.024Z,4.03
2023-01-01T08:16:09.800Z,3.22
2023-01-01T08:18:36.834Z,3.72
2023-01-01T08:21:04.009Z,3.55
2023-01-01T08:23:30.928Z,2.75
2023-01-01T08:26:04.002Z,4.07
2023-01-01T08:28:31.101Z,3.45
2023-01-01T08:30:58.139Z,3.80
2023-01-01T08:33:26.256Z,3.33
2023-01-01T08:35:54.510Z,4.45
2023-01-01T08:38:21.530Z,4.47
2023-01-01T08:40:48.238Z,3.38
2023-01-01T08:43:15.095Z,5.55
2023-01-01T08:45:41.881Z,4.97
2023-01-01T08:48:08.574Z,5.57
2023-01-01T08:50:35.363Z,5.85
2023-01-01T08:53:02.090Z,5.53
2023-01-01T08:55:29.433Z,4.25
2023-01-01T08:57:56.165Z,4.30
2023-01-01T09:00:23.095Z,4.82
2023-01-01T09:02:49.838Z,4.18
2023-01-01T09:05:16.732Z,4.35
2023-01-01T09:07:43.419Z,4.90
2023-01-01T09:10:10.075Z,5.68
2023-01-01T09:12:36.896Z,7.55
2023-01-01T09:15:03.863Z,5.07
2023-01-01T09:17:30.569Z,6.93
2023-01-01T09:19:57.318Z,5.43
2023-01-01T09:22:24.063Z,3.58
2023-01-01T09:24:50.787Z,4.90
2023-01-01T09:27:17.530Z,4.55
2023-01-01T09:40:29.384Z,3.90
2023-01-01T09:43:09.026Z,3.25
2023-01-01T09:45:54.474Z,2.53
2023-01-01T09:48:21.932Z,5.00
2023-01-01T09:50:48.794Z,3.40
2023-01-01T09:53:45.829Z,2.83
2023-01-01T09:56:18.768Z,3.50
2023-01-01T09:58:45.528Z,4.32
2023-01-01T10:01:27.440Z,4.40
2023-01-01T10:04:09.452Z,4.22
2023-01-01T10:06:44.980Z,3.17
2023-01-01T10:09:25.048Z,4.63
2023-01-01T10:12:13.052Z,3.95
2023-01-01T10:14:43.826Z,4.68
2023-01-01T10:17:18.139Z,2.25
2023-01-01T10:19:50.661Z,4.20
2023-01-01T10:22:26.868Z,2.97
2023-01-01T10:24:59.904Z,3.15
2023-01-01T10:27:33.562Z,2.72
2023-01-01T10:30:04.708Z,4.05
2023-01-01T10:32:35.515Z,4.82
2023-01-01T10:35:11.471Z,3.30
2023-01-01T10:37:39.484Z,2.95
2023-01-01T10:40:24.066Z,4.90
2023-01-01T10:43:03.960Z,5.43
2023-01-01T10:45:50.857Z,4.15
2023-01-01T10:48:30.213Z,2.80
2023-01-01T10:51:02.187Z,3.97
2023-01-01T10:53:41.790Z,3.20
2023-01-01T10:56:14.391Z,2.88
2023-01-01T10:58:57.147Z,3.92
2023-01-01T11:01:32.217Z,3.45
2023-01-01T11:04:02.196Z,4.03
2023-01-01T11:06:37.540Z,4.38
2023-01-01T11:09:17.536Z,2.42
2023-01-01T11:11:46.925Z,2.13
2023-01-01T11:14:25.697Z,4.25
2023-01-01T11:16:54.305Z,3.50
2023-01-01T11:19:23.463Z,3.83
2023-01-01T11:21:50.233Z,2.80
2023-01-01T11:24:25.419Z,2.17
2023-01-01T11:26:55.326Z,4.72
2023-01-01T11:29:27.965Z,4.85
2023-01-01T11:31:56.690Z,3.58
2023-01-01T11:34:28.892Z,2.33
2023-01-01T11:37:21.633Z,2.70
2023-01-01T11:39:51.356Z,3.67
2023-01-01T11:42:22.831Z,4.80
2023-01-01T11:44:53.961Z,5.35
2023-01-01T11:47:32.325Z,9.93
2023-01-01T11:50:26.914Z,9.65
2023-01-01T11:52:58.338Z,10.50
2023-01-01T11:55:43.407Z,10.07
2023-01-01T11:58:34.045Z,7.80
2023-01-01T12:01:09.572Z,8.52
2023-01-01T12:03:48.607Z,7.57
2023-01-01T12:06:30.327Z,6.03
2023-01-01T12:09:18.806Z,6.05
2023-01-01T12:11:48.785Z,5.57
2023-01-01T12:14:32.498Z,5.60
2023-01-01T12:17:01.904Z,4.40
2023-01-01T12:19:34.963Z,3.65
2023-01-01T12:22:01.848Z,6.18
2023-01-01T12:24:35.084Z,5.90
2023-01-01T12:29:59.372Z,7.35
2023-01-01T12:32:29.085Z,8.35
2023-01-01T12:35:15.998Z,6.50
2023-01-01T12:37:42.652Z,5.30
2023-01-01T12:40:37.817Z,6.40
2023-01-01T12:43:10.567Z,11.00
2023-01-01T12:46:04.030Z,5.63
2023-01-01T12:48:58.263Z,5.25
2023-01-01T12:51:57.434Z,4.80
2023-01-01T12:54:30.169Z,9.07
2023-01-01T12:57:08.896Z,13.50
2023-01-01T12:59:42.361Z,8.60
2023-01-01T13:02:26.151Z,8.43
2023-01-01T13:05:10.619Z,7.80
2023-01-01T13:07:45.835Z,7.50
2023-01-01T13:10:35.877Z,7.45
2023-01-01T13:13:03.970Z,9.55
2023-01-01T13:15:43.359Z,8.52
2023-01-01T13:18:13.254Z,8.95
2023-01-01T13:20:46.977Z,10.32
2023-01-01T13:23:31.711Z,9.35
2023-01-01T13:26:26.118Z,8.77
2023-01-01T13:28:59.634Z,18.63
2023-01-01T13:31:42.295Z,11.45
2023-01-01T13:34:30.772Z,9.30
2023-01-01T13:37:17.862Z,8.75
2023-01-01T13:40:27.488Z,9.00
2023-01-01T13:43:00.833Z,8.23
2023-01-01T13:46:11.438Z,8.85
2023-01-01T13:49:05.538Z,6.30
2023-01-01T13:52:08.335Z,4.40
2023-01-01T13:55:01.770Z,3.63
2023-01-01T13:57:53.424Z,7.18
2023-01-01T14:00:49.844Z,11.45
2023-01-01T14:03:18.453Z,13.85
2023-01-01T14:05:54.019Z,13.15
2023-01-01T14:08:32.043Z,11.32
2023-01-01T14:11:05.019Z,11.00
2023-01-01T14:13:41.219Z,11.85
2023-01-01T14:16:13.749Z,8.75
2023-01-01T14:18:44.921Z,11.25
2023-01-01T14:21:19.057Z,10.50
2023-01-01T14:23:51.470Z,10.18
2023-01-01T14:26:21.699Z,12.35
2023-01-01T14:28:48.756Z,10.30
2023-01-01T14:31:27.560Z,11.23
2023-01-01T14:33:57.478Z,10.65
2023-01-01T14:36:25.237Z,12.40
2023-01-01T14:38:54.329Z,9.85
2023-01-01T14:41:37.809Z,14.50
2023-01-01T14:46:52.739Z,13.50
2023-01-01T14:49:26.465Z,9.45
2023-01-01T14:52:27.855Z,11.93
2023-01-01T14:54:57.481Z,11.80
2023-01-01T14:57:28.185Z,11.20
2023-01-01T14:59:56.838Z,12.75
2023-01-01T15:02:30.663Z,11.23
2023-01-01T15:04:59.071Z,10.98
2023-01-01T15:07:29.253Z,11.55
2023-01-01T15:10:00.546Z,11.10
2023-01-01T15:12:28.028Z,12.13
2023-01-01T15:14:56.596Z,9.88
2023-01-01T15:17:28.312Z,12.10
2023-01-01T15:20:07.459Z,8.38
2023-01-01T15:22:41.132Z,8.07
2023-01-01T15:25:14.722Z,6.78
2023-01-01T15:27:41.673Z,6.18
2023-01-01T15:30:22.473Z,9.15
2023-01-01T15:32:49.313Z,6.28
2023-01-01T15:35:31.164Z,6.07
2023-01-01T15:38:34.363Z,4.90
2023-01-01T15:41:21.582Z,7.20
2023-01-01T15:43:48.254Z,6.53
2023-01-01T15:46:23.336Z,4.95
2023-01-01T15:48:53.517Z,6.85
2023-01-01T15:51:23.892Z,6.97
2023-01-01T15:53:53.538Z,8.07
2023-01-01T15:56:23.370Z,9.52
2023-01-01T15:58:55.539Z,7.28
2023-01-01T16:01:26.033Z,7.40
2023-01-01T16:04:01.308Z,8.82
2023-01-01T16:06:28.357Z,6.78
2023-01-01T16:08:55.010Z,8.65
2023-01-01T16:11:21.723Z,6.28
2023-01-01T16:13:48.432Z,6.43
2023-01-01T16:16:30.322Z,8.27
2023-01-01T16:18:58.145Z,6.30
2023-01-01T16:21:29.769Z,9.45
2023-01-01T16:23:56.566Z,8.20
2023-01-01T16:26:23.257Z,7.78
2023-01-01T16:28:50.030Z,6.50
2023-01-01T16:31:20.574Z,6.22
2023-01-01T16:33:53.224Z,9.00
2023-01-01T16:36:20.056Z,7.47
2023-01-01T16:38:46.859Z,7.32
2023-01-01T16:41:18.127Z,8.77
2023-01-01T16:43:46.520Z,6.13
2023-01-01T16:46:14.073Z,7.00
2023-01-01T16:48:41.381Z,6.13
2023-01-01T16:51:27.215Z,5.25
2023-01-01T16:53:54.742Z,8.90
2023-01-01T16:56:21.422Z,8.40
2023-01-01T16:58:54.275Z,7.80
2023-01-01T17:01:27.302Z,7.90
2023-01-01T17:03:55.049Z,8.05
2023-01-01T17:06:21.753Z,8.05
2023-01-01T17:08:51.007Z,10.32
2023-01-01T17:11:18.507Z,9.30
2023-01-01T17:13:49.587Z,9.27
2023-01-01T17:16:27.043Z,8.15
2023-01-01T17:21:43.193Z,8.32
2023-01-01T17:24:11.112Z,8.15
2023-01-01T17:26:38.111Z,9.57
2023-01-01T17:29:07.245Z,7.55
2023-01-01T17:31:34.319Z,8.82
2023-01-01T17:34:01.270Z,6.82
2023-01-01T17:36:28.318Z,7.40
2023-01-01T17:38:55.661Z,7.47
2023-01-01T17:41:25.468Z,8.13
2023-01-01T17:43:52.243Z,7.55
2023-01-01T17:46:31.362Z,8.32
2023-01-01T17:48:59.452Z,6.95
2023-01-01T17:51:26.939Z,6.43
2023-01-01T17:53:55.776Z,7.88
2023-01-01T17:56:24.174Z,8.18
2023-01-01T17:58:56.140Z,8.90
2023-01-01T18:01:23.123Z,7.95
2023-01-01T18:03:57.203Z,7.68
2023-01-01T18:06:24.656Z,8.52
2023-01-01T18:08:56.609Z,8.65
2023-01-01T18:11:27.618Z,9.23
2023-01-01T18:13:55.369Z,8.23
2023-01-01T18:16:22.694Z,8.63
2023-01-01T18:18:49.716Z,8.50
2023-01-01T18:21:20.981Z,12.02
2023-01-01T18:23:49.797Z,26.92
2023-01-01T18:26:16.857Z,22.35
2023-01-01T18:28:44.017Z,31.25
2023-01-01T18:31:15.760Z,26.95
2023-01-01T18:33:43.335Z,23.13
2023-01-01T18:36:15.241Z,18.08
2023-01-01T18:38:45.840Z,16.45
2023-01-01T18:41:43.577Z,19.23
2023-01-01T18:44:26.492Z,15.20
2023-01-01T18:46:58.332Z,14.43
2023-01-01T18:49:26.135Z,15.23
2023-01-01T18:52:02.331Z,14.23
2023-01-01T18:54:29.982Z,13.13
2023-01-01T18:57:22.434Z,11.82
2023-01-01T18:59:55.608Z,12.18
2023-01-01T19:02:43.753Z,17.38
2023-01-01T19:05:24.657Z,20.95
2023-01-01T19:08:03.455Z,18.58
2023-01-01T19:10:35.422Z,16.48
2023-01-01T19:13:20.878Z,18.30
2023-01-01T19:15:57.272Z,13.63
2023-01-01T19:18:28.487Z,14.88
2023-01-01T19:21:33.225Z,14.60
2023-01-01T19:24:02.608Z,12.15
2023-01-01T19:26:40.218Z,11.60
2023-01-01T19:29:23.176Z,10.02
2023-01-01T19:31:52.045Z,13.45
2023-01-01T19:34:18.955Z,9.60
2023-01-01T19:36:46.590Z,10.68
2023-01-01T19:39:14.362Z,11.18
2023-01-01T19:41:41.352Z,11.18
2023-01-01T19:44:10.321Z,14.13
2023-01-01T19:46:37.329Z,13.07
2023-01-01T19:49:04.464Z,14.23
2023-01-01T19:51:31.196Z,13.10
2023-01-01T19:53:57.877Z,13.38
2023-01-01T19:56:25.987Z,15.50
2023-01-01T19:58:52.937Z,13.82
2023-01-01T20:01:20.072Z,11.85
2023-01-01T20:03:56.930Z,14.77
2023-01-01T20:06:24.867Z,13.73
2023-01-01T20:08:54.992Z,12.57
2023-01-01T20:11:22.642Z,12.25
2023-01-01T20:13:49.714Z,11.13
2023-01-01T20:16:16.428Z,12.77
2023-01-01T20:18:43.242Z,13.20
2023-01-01T20:21:29.274Z,10.90
2023-01-01T20:23:56.097Z,12.40
2023-01-01T20:26:25.539Z,12.40
2023-01-01T20:29:11.078Z,14.18
2023-01-01T20:31:38.164Z,13.65
2023-01-01T20:34:05.002Z,13.85
2023-01-01T20:36:50.612Z,13.45
2023-01-01T20:39:17.310Z,13.05
2023-01-01T20:41:46.943Z,17.27
2023-01-01T20:44:16.309Z,14.07
2023-01-01T20:46:44.663Z,12.48
2023-01-01T20:49:17.163Z,16.25
2023-01-01T20:51:49.456Z,13.48
2023-01-01T20:54:19.471Z,12.33
2023-01-01T20:56:46.217Z,12.27
2023-01-01T20:59:34.062Z,12.57
2023-01-01T21:02:00.841Z,13.10
2023-01-01T21:04:27.732Z,12.30
2023-01-01T21:06:54.387Z,13.25
2023-01-01T21:09:21.060Z,11.45
2023-01-01T21:11:47.911Z,12.93
2023-01-01T21:14:14.591Z,14.27
2023-01-01T21:16:44.983Z,12.52
2023-01-01T21:19:12.669Z,13.10
2023-01-01T21:21:39.266Z,11.18
2023-01-01T21:24:32.932Z,11.40
2023-01-01T21:29:48.212Z,12.02
2023-01-01T21:32:38.894Z,12.02
2023-01-01T21:35:23.478Z,10.73
2023-01-01T21:37:53.818Z,8.27
2023-01-01T21:40:50.954Z,9.25
2023-01-01T21:43:34.798Z,9.60
2023-01-01T21:46:07.821Z,8.75
2023-01-01T21:48:36.302Z,7.70
2023-01-01T21:51:03.295Z,9.18
2023-01-01T21:53:35.600Z,7.53
2023-01-01T21:56:27.911Z,6.60
2023-01-01T21:59:18.735Z,8.55
2023-01-01T22:01:46.297Z,8.55
2023-01-01T22:04:29.427Z,8.32
2023-01-01T22:07:09.532Z,7.18
2023-01-01T22:09:49.377Z,9.70
2023-01-01T22:12:16.066Z,7.80
2023-01-01T22:14:48.296Z,10.35
2023-01-01T22:17:20.259Z,7.77
2023-01-01T22:19:48.538Z,7.85
2023-01-01T22:22:17.679Z,8.45
2023-01-01T22:24:50.844Z,8.77
2023-01-01T22:30:19.821Z,6.45
2023-01-01T22:32:53.613Z,7.80
2023-01-01T22:35:32.228Z,6.18
2023-01-01T22:38:03.394Z,6.05
2023-01-01T22:40:33.540Z,4.55
2023-01-01T22:43:26.039Z,6.53
2023-01-01T22:45:53.609Z,7.53
2023-01-01T22:48:35.307Z,5.95
2023-01-01T22:51:06.824Z,5.13
2023-01-01T22:53:33.575Z,4.65
2023-01-01T22:56:03.347Z,6.80
2023-01-01T22:58:30.073Z,5.85
2023-01-01T23:00:56.798Z,7.28
2023-01-01T23:03:23.514Z,6.57
2023-01-01T23:05:50.402Z,4.78
2023-01-01T23:08:17.428Z,6.28
2023-01-01T23:10:44.243Z,6.20
2023-01-01T23:13:29.606Z,6.35
2023-01-01T23:16:02.463Z,4.50
2023-01-01T23:18:34.698Z,5.43
2023-01-01T23:21:05.358Z,4.47
2023-01-01T23:23:32.346Z,6.22
2023-01-01T23:25:59.836Z,4.43
2023-01-01T23:28:28.508Z,6.15
2023-01-01T23:30:56.247Z,4.40
2023-01-01T23:33:23.223Z,4.55
2023-01-01T23:35:50.099Z,4.47
2023-01-01T23:38:22.484Z,3.35
2023-01-01T23:40:49.398Z,3.33
2023-01-01T23:43:18.195Z,2.78
2023-01-01T23:45:48.640Z,5.60
2023-01-01T23:48:16.346Z,4.43
2023-01-01T23:50:43.292Z,3.55
2023-01-01T23:53:10.034Z,3.83
2023-01-01T23:55:39.383Z,4.07
2023-01-01T23:58:09.189Z,3.15
